Time;durP1;ratioP1;P1;durP2;ratioP2;P2;SDS_P1;SDS_P2;PMS_P1;PMS_P2;Temp;Humidity;BMP_temperature;BMP_pressure;BME280_temperature;BME280_humidity;BME280_pressure;Samples;Min_cycle;Max_cycle;Signal;HPM_P1;HPM_P2
2022/03/01 00:02:11;;;;;;;75.00;47.90;;;;;;;-3.05;94.44;100823.59;105282;1269;61329;-74
2022/03/01 00:04:38;;;;;;;85.10;51.90;;;;;;;-3.06;94.67;100829.48;105254;1270;61250;-74
2022/03/01 00:07:05;;;;;;;86.60;52.30;;;;;;;-3.10;94.55;100833.95;105254;1270;73964;-74
2022/03/01 00:09:31;;;;;;;92.70;51.40;;;;;;;-3.15;94.43;100833.52;105248;1270;61326;-76
2022/03/01 00:11:58;;;;;;;81.80;45.00;;;;;;;-3.21;94.49;100833.55;105216;1270;61283;-76
2022/03/01 00:14:24;;;;;;;95.60;56.20;;;;;;;-3.28;94.65;100832.05;105238;1269;61392;-77
2022/03/01 00:16:51;;;;;;;98.90;57.00;;;;;;;-3.34;94.93;100834.56;105259;1270;61173;-76
2022/03/01 00:19:17;;;;;;;98.70;56.60;;;;;;;-3.37;95.09;100830.50;104997;1270;61347;-75
2022/03/01 00:21:44;;;;;;;83.50;50.70;;;;;;;-3.42;95.23;100832.14;105224;1268;61355;-75
2022/03/01 00:24:11;;;;;;;71.80;46.20;;;;;;;-3.45;95.49;100826.35;105292;1270;61356;-74
2022/03/01 00:26:37;;;;;;;80.50;48.60;;;;;;;-3.47;95.86;100825.42;105225;1270;61329;-73
2022/03/01 00:29:04;;;;;;;92.40;53.50;;;;;;;-3.49;96.02;100823.66;105271;1270;61391;-76
2022/03/01 00:31:30;;;;;;;89.20;57.80;;;;;;;-3.51;96.15;100824.84;105263;1270;61381;-75
2022/03/01 00:33:57;;;;;;;90.80;59.30;;;;;;;-3.53;96.30;100827.23;105243;1269;61260;-76
2022/03/01 00:36:23;;;;;;;97.50;61.90;;;;;;;-3.56;96.52;100823.35;105263;1270;61344;-74
2022/03/01 00:38:50;;;;;;;97.60;56.10;;;;;;;-3.61;96.47;100828.82;105251;1270;61302;-74
2022/03/01 00:41:16;;;;;;;81.30;49.10;;;;;;;-3.65;96.81;100829.61;105252;1270;61289;-75
2022/03/01 00:43:43;;;;;;;88.90;54.70;;;;;;;-3.68;97.12;100828.32;105142;1270;61960;-73
2022/03/01 00:46:10;;;;;;;95.20;55.90;;;;;;;-3.70;97.45;100827.24;105005;1271;61946;-75
2022/03/01 00:48:36;;;;;;;80.30;49.40;;;;;;;-3.72;97.33;100824.95;105283;1270;61224;-75
2022/03/01 00:51:03;;;;;;;83.90;49.70;;;;;;;-3.73;97.65;100825.97;105253;1268;61230;-76
2022/03/01 00:53:29;;;;;;;78.70;50.90;;;;;;;-3.75;97.57;100829.73;104961;1270;449517;-74
2022/03/01 00:55:56;;;;;;;75.30;47.00;;;;;;;-3.79;97.44;100829.83;105247;1270;73394;-75
2022/03/01 00:58:23;;;;;;;71.10;41.10;;;;;;;-3.81;97.78;100824.08;105285;1270;61304;-73
2022/03/01 01:00:49;;;;;;;64.70;41.00;;;;;;;-3.82;97.91;100824.05;105330;1270;61316;-75
2022/03/01 01:03:16;;;;;;;62.00;37.20;;;;;;;-3.84;97.81;100823.84;105385;1269;61300;-74
2022/03/01 01:05:42;;;;;;;63.80;36.20;;;;;;;-3.86;98.02;100825.19;105357;1270;61266;-76
2022/03/01 01:08:09;;;;;;;62.40;35.20;;;;;;;-3.86;98.00;100826.03;105351;1269;61295;-74
2022/03/01 01:10:35;;;;;;;63.30;34.80;;;;;;;-3.88;97.90;100826.17;105050;1270;1003657;-74
2022/03/01 01:13:02;;;;;;;52.40;33.40;;;;;;;-3.90;97.95;100824.55;106225;1270;61382;-74
2022/03/01 01:15:29;;;;;;;61.40;35.00;;;;;;;-3.90;98.12;100829.42;106015;1270;74685;-74
2022/03/01 01:17:55;;;;;;;65.50;39.40;;;;;;;-3.91;98.27;100828.02;105298;1269;61413;-75
2022/03/01 01:20:21;;;;;;;58.40;36.70;;;;;;;-3.92;98.32;100828.17;105227;1270;61255;-75
2022/03/01 01:22:48;;;;;;;63.00;37.90;;;;;;;-3.94;98.38;100832.81;105272;1270;61320;-75
2022/03/01 01:25:23;;;;;;;60.60;37.20;;;;;;;-3.96;98.26;100833.48;105309;1269;61272;-74
2022/03/01 01:27:56;;;;;;;66.30;40.00;;;;;;;-4.00;98.27;100838.08;105054;1270;74931;-73
2022/03/01 01:30:25;;;;;;;72.70;39.40;;;;;;;-4.04;98.42;100838.00;105415;1270;70482;-75
2022/03/01 01:32:52;;;;;;;64.50;42.30;;;;;;;-4.07;98.64;100836.36;105258;1270;73380;-74
2022/03/01 01:35:21;;;;;;;67.80;42.30;;;;;;;-4.08;98.85;100834.96;105229;1270;61348;-74
2022/03/01 01:37:49;;;;;;;68.00;43.60;;;;;;;-4.08;99.06;100837.54;105253;1270;61252;-73
2022/03/01 01:40:20;;;;;;;68.10;44.20;;;;;;;-4.09;99.19;100837.70;105168;1269;75362;-73
2022/03/01 01:42:46;;;;;;;71.70;48.80;;;;;;;-4.10;99.30;100836.11;105252;1270;69627;-74
2022/03/01 01:45:13;;;;;;;64.90;44.20;;;;;;;-4.13;99.18;100838.48;105239;1270;74232;-75
2022/03/01 01:47:40;;;;;;;68.00;43.80;;;;;;;-4.15;99.24;100834.62;105230;1270;61574;-74
2022/03/01 01:50:08;;;;;;;75.60;45.30;;;;;;;-4.19;99.25;100834.19;105238;1269;61366;-75
2022/03/01 01:52:35;;;;;;;68.20;44.60;;;;;;;-4.23;99.22;100841.38;105003;1270;75116;-73
2022/03/01 01:55:02;;;;;;;70.90;46.30;;;;;;;-4.27;99.25;100833.32;104907;1270;68190;-75
2022/03/01 01:57:30;;;;;;;70.00;44.30;;;;;;;-4.30;99.42;100833.78;105312;1270;73491;-74
2022/03/01 01:59:57;;;;;;;73.30;44.10;;;;;;;-4.33;99.41;100829.52;105258;1270;61394;-74
2022/03/01 02:02:25;;;;;;;62.30;41.70;;;;;;;-4.37;99.64;100825.79;105311;1270;61174;-74
2022/03/01 02:04:53;;;;;;;68.50;41.40;;;;;;;-4.41;99.78;100824.85;105265;1270;76487;-74
2022/03/01 02:07:20;;;;;;;60.80;41.40;;;;;;;-4.44;99.91;100822.50;105246;1268;69332;-73
2022/03/01 02:09:46;;;;;;;63.50;41.60;;;;;;;-4.47;100.00;100826.61;105233;1269;73730;-76
2022/03/01 02:12:13;;;;;;;65.60;43.90;;;;;;;-4.49;100.00;100825.34;105241;1270;61817;-73
2022/03/01 02:14:40;;;;;;;71.50;43.90;;;;;;;-4.51;100.00;100826.16;105254;1269;61246;-75
2022/03/01 02:17:09;;;;;;;81.80;48.00;;;;;;;-4.51;100.00;100828.23;104951;1271;75179;-75
2022/03/01 02:19:37;;;;;;;75.50;46.80;;;;;;;-4.53;100.00;100828.56;105370;1270;68723;-73
2022/03/01 02:22:06;;;;;;;79.10;48.40;;;;;;;-4.55;100.00;100826.77;105266;1270;71828;-74
2022/03/01 02:24:34;;;;;;;73.80;44.40;;;;;;;-4.56;100.00;100823.63;105277;1270;61273;-73
2022/03/01 02:27:04;;;;;;;76.70;48.40;;;;;;;-4.58;100.00;100819.40;105265;1270;61342;-75
2022/03/01 02:29:32;;;;;;;80.60;48.50;;;;;;;-4.59;100.00;100819.21;105294;1270;76163;-74
2022/03/01 02:32:03;;;;;;;71.00;47.30;;;;;;;-4.61;100.00;100815.88;105283;1270;69347;-74
2022/03/01 02:34:30;;;;;;;75.80;49.10;;;;;;;-4.65;100.00;100818.20;105230;1269;74255;-74
2022/03/01 02:36:57;;;;;;;79.10;51.30;;;;;;;-4.68;100.00;100818.82;105267;1270;61298;-74
2022/03/01 02:39:24;;;;;;;78.20;51.80;;;;;;;-4.72;100.00;100819.60;105288;1270;61163;-74
2022/03/01 02:41:50;;;;;;;83.50;53.40;;;;;;;-4.74;100.00;100821.46;105274;1269;75438;-74
2022/03/01 02:44:17;;;;;;;80.30;50.60;;;;;;;-4.77;100.00;100825.90;105239;1270;69418;-73
2022/03/01 02:46:44;;;;;;;71.70;47.60;;;;;;;-4.79;100.00;100824.27;104519;1270;1003000;-74
2022/03/01 02:49:11;;;;;;;73.40;49.20;;;;;;;-4.82;100.00;100821.27;104567;1270;1003403;-74
2022/03/01 02:51:38;;;;;;;69.30;46.30;;;;;;;-4.85;100.00;100818.60;105247;1269;61279;-74
2022/03/01 02:54:06;;;;;;;75.00;48.10;;;;;;;-4.88;100.00;100819.54;105283;1271;75147;-73
2022/03/01 02:56:33;;;;;;;76.10;46.20;;;;;;;-4.92;100.00;100817.02;105001;1270;70017;-72
2022/03/01 02:59:00;;;;;;;73.90;45.90;;;;;;;-4.93;100.00;100820.48;105236;1270;73151;-74
2022/03/01 03:01:28;;;;;;;75.70;46.90;;;;;;;-4.93;100.00;100815.27;105254;1270;61451;-74
2022/03/01 03:03:56;;;;;;;77.70;50.60;;;;;;;-4.92;100.00;100815.82;105256;1269;61279;-76
2022/03/01 03:06:23;;;;;;;78.70;49.90;;;;;;;-4.93;100.00;100814.75;105468;1270;74895;-76
2022/03/01 03:08:49;;;;;;;77.30;52.70;;;;;;;-4.94;100.00;100813.67;105251;1270;70380;-76
2022/03/01 03:11:16;;;;;;;84.50;49.50;;;;;;;-4.96;100.00;100812.75;105030;1270;61284;-76
2022/03/01 03:13:42;;;;;;;81.30;50.50;;;;;;;-4.97;100.00;100812.56;105281;1270;61371;-76
2022/03/01 03:16:10;;;;;;;77.20;48.80;;;;;;;-5.00;100.00;100806.59;105278;1270;61298;-74
2022/03/01 03:18:38;;;;;;;73.30;49.20;;;;;;;-5.07;100.00;100807.13;105044;1271;76419;-73
2022/03/01 03:21:05;;;;;;;67.20;44.70;;;;;;;-5.13;100.00;100808.71;105243;1270;67818;-74
2022/03/01 03:23:32;;;;;;;73.20;47.10;;;;;;;-5.17;100.00;100805.30;105243;1269;73550;-74
2022/03/01 03:26:00;;;;;;;71.00;47.80;;;;;;;-5.22;100.00;100807.09;105358;1270;61276;-74
2022/03/01 03:28:26;;;;;;;79.40;51.60;;;;;;;-5.26;100.00;100808.70;104932;1271;61983;-74
2022/03/01 03:30:53;;;;;;;75.80;51.60;;;;;;;-5.31;100.00;100813.77;105258;1270;61375;-74
2022/03/01 03:33:20;;;;;;;80.80;54.40;;;;;;;-5.31;100.00;100812.06;105265;1270;69154;-73
2022/03/01 03:35:46;;;;;;;81.10;52.90;;;;;;;-5.31;100.00;100813.95;105244;1270;61371;-74
2022/03/01 03:38:13;;;;;;;73.50;53.50;;;;;;;-5.32;100.00;100806.99;105218;1270;61288;-74
2022/03/01 03:40:40;;;;;;;82.70;54.80;;;;;;;-5.33;100.00;100808.18;104541;1270;1003011;-74
2022/03/01 03:43:06;;;;;;;86.00;54.80;;;;;;;-5.33;100.00;100809.91;105245;1270;76243;-74
2022/03/01 03:45:33;;;;;;;77.20;51.90;;;;;;;-5.33;100.00;100806.79;104534;1271;1003822;-73
2022/03/01 03:47:59;;;;;;;82.40;52.40;;;;;;;-5.35;100.00;100808.13;105297;1270;61378;-75
2022/03/01 03:50:26;;;;;;;84.10;54.00;;;;;;;-5.37;100.00;100807.53;105067;1273;61425;-74
2022/03/01 03:52:52;;;;;;;75.80;51.80;;;;;;;-5.37;100.00;100808.58;104535;1270;1003010;-74
2022/03/01 03:55:19;;;;;;;78.30;50.20;;;;;;;-5.38;100.00;100806.82;104943;1270;61572;-75
2022/03/01 03:57:46;;;;;;;75.70;50.40;;;;;;;-5.42;100.00;100802.91;105047;1271;61499;-74
2022/03/01 04:00:16;;;;;;;70.30;49.00;;;;;;;-5.45;100.00;100803.02;105286;1270;61283;-75
2022/03/01 04:02:45;;;;;;;76.70;51.40;;;;;;;-5.47;100.00;100798.97;105279;1270;61262;-74
2022/03/01 04:05:13;;;;;;;80.00;52.60;;;;;;;-5.50;100.00;100798.89;105257;1273;61409;-74
2022/03/01 04:07:42;;;;;;;84.20;56.50;;;;;;;-5.52;100.00;100794.85;105351;1270;75912;-73
2022/03/01 04:10:09;;;;;;;82.70;58.20;;;;;;;-5.56;100.00;100788.36;105423;1270;69119;-74
2022/03/01 04:12:36;;;;;;;91.60;61.80;;;;;;;-5.58;100.00;100780.50;105370;1270;73305;-75
2022/03/01 04:15:04;;;;;;;89.80;61.90;;;;;;;-5.59;100.00;100779.77;105315;1270;61416;-75
2022/03/01 04:17:31;;;;;;;90.60;60.60;;;;;;;-5.61;100.00;100776.25;105049;1271;61345;-75
2022/03/01 04:19:58;;;;;;;98.50;67.70;;;;;;;-5.64;100.00;100778.59;105257;1270;74456;-75
2022/03/01 04:22:25;;;;;;;85.70;62.40;;;;;;;-5.66;100.00;100776.64;105227;1270;61280;-73
2022/03/01 04:24:52;;;;;;;89.70;60.30;;;;;;;-5.69;100.00;100778.98;105324;1270;73171;-73
2022/03/01 04:27:19;;;;;;;87.30;57.50;;;;;;;-5.75;100.00;100774.68;105360;1270;61257;-75
2022/03/01 04:29:45;;;;;;;84.80;60.30;;;;;;;-5.78;100.00;100774.59;105287;1270;61316;-75
2022/03/01 04:32:12;;;;;;;83.30;57.90;;;;;;;-5.82;100.00;100779.15;105317;1270;75894;-74
2022/03/01 04:34:40;;;;;;;79.50;55.20;;;;;;;-5.86;100.00;100771.05;105395;1270;68359;-73
2022/03/01 04:37:08;;;;;;;85.60;56.40;;;;;;;-5.90;100.00;100763.00;105382;1270;73161;-75
2022/03/01 04:39:35;;;;;;;80.40;55.10;;;;;;;-5.94;100.00;100760.98;105136;1271;61288;-75
2022/03/01 04:42:04;;;;;;;96.70;63.00;;;;;;;-6.01;100.00;100757.20;105313;1270;61344;-75
2022/03/01 04:44:33;;;;;;;101.20;64.40;;;;;;;-6.06;100.00;100754.48;105516;1270;76126;-74
2022/03/01 04:47:02;;;;;;;98.50;64.00;;;;;;;-6.09;100.00;100751.23;105310;1270;69442;-75
2022/03/01 04:49:29;;;;;;;96.20;60.40;;;;;;;-6.13;100.00;100756.66;105267;1270;72352;-76
2022/03/01 04:51:56;;;;;;;86.70;58.00;;;;;;;-6.17;100.00;100756.05;105302;1270;61377;-74
2022/03/01 04:54:23;;;;;;;93.00;61.20;;;;;;;-6.19;100.00;100757.88;105333;1270;61322;-75
2022/03/01 04:56:49;;;;;;;98.10;61.80;;;;;;;-6.19;100.00;100766.00;105303;1270;74165;-74
2022/03/01 04:59:16;;;;;;;97.40;64.50;;;;;;;-6.17;100.00;100762.27;104556;1270;1003615;-74
2022/03/01 05:01:43;;;;;;;93.90;64.20;;;;;;;-6.14;100.00;100763.04;105292;1269;73414;-75
2022/03/01 05:04:10;;;;;;;96.10;63.20;;;;;;;-6.13;100.00;100760.29;105278;1270;61387;-75
2022/03/01 05:06:36;;;;;;;97.50;60.70;;;;;;;-6.15;100.00;100760.42;105289;1269;61136;-75
2022/03/01 05:09:03;;;;;;;92.30;61.70;;;;;;;-6.16;100.00;100762.80;105226;1270;61257;-74
2022/03/01 05:11:30;;;;;;;93.60;63.60;;;;;;;-6.16;100.00;100758.98;104616;1270;1003215;-75
2022/03/01 05:13:56;;;;;;;107.90;71.50;;;;;;;-6.15;100.00;100757.64;105229;1270;61155;-75
2022/03/01 05:16:23;;;;;;;107.00;73.90;;;;;;;-6.14;100.00;100758.36;105243;1269;61343;-75
2022/03/01 05:18:49;;;;;;;104.20;70.90;;;;;;;-6.13;100.00;100756.32;105247;1270;61292;-75
2022/03/01 05:21:16;;;;;;;104.80;69.30;;;;;;;-6.13;100.00;100756.65;105296;1270;61294;-73
2022/03/01 05:23:42;;;;;;;99.40;65.40;;;;;;;-6.15;100.00;100755.41;105241;1270;61386;-74
2022/03/01 05:26:09;;;;;;;92.60;63.20;;;;;;;-6.16;100.00;100755.00;105281;1270;61379;-74
2022/03/01 05:28:35;;;;;;;98.30;65.60;;;;;;;-6.17;100.00;100754.65;105267;1270;61201;-74
2022/03/01 05:31:02;;;;;;;93.80;62.90;;;;;;;-6.15;100.00;100755.21;105153;1271;61061;-73
2022/03/01 05:33:29;;;;;;;91.90;64.00;;;;;;;-6.14;100.00;100751.10;105166;1271;62106;-74
2022/03/01 05:35:55;;;;;;;93.40;63.50;;;;;;;-6.14;100.00;100748.15;105304;1270;61314;-73
2022/03/01 05:38:22;;;;;;;98.50;65.10;;;;;;;-6.10;100.00;100747.40;105528;1270;61365;-74
2022/03/01 05:40:48;;;;;;;97.00;65.30;;;;;;;-6.05;100.00;100744.63;106294;1270;61281;-75
2022/03/01 05:43:15;;;;;;;89.50;63.00;;;;;;;-5.99;100.00;100741.34;106608;1270;61331;-75
2022/03/01 05:45:42;;;;;;;90.50;62.80;;;;;;;-5.95;100.00;100739.17;105475;1270;75297;-74
2022/03/01 05:48:08;;;;;;;90.80;64.50;;;;;;;-5.94;100.00;100737.81;105262;1270;69442;-74
2022/03/01 05:50:35;;;;;;;92.80;65.90;;;;;;;-5.90;100.00;100743.79;105257;1270;61248;-74
2022/03/01 05:53:02;;;;;;;91.30;65.40;;;;;;;-5.85;100.00;100748.60;105385;1270;61302;-74
2022/03/01 05:55:29;;;;;;;91.40;63.00;;;;;;;-5.81;100.00;100748.00;105288;1270;61828;-74
2022/03/01 05:57:57;;;;;;;79.80;56.60;;;;;;;-5.78;100.00;100746.90;105254;1270;61482;-75
2022/03/01 06:00:23;;;;;;;88.10;60.30;;;;;;;-5.72;100.00;100746.16;105307;1270;70448;-73
2022/03/01 06:02:51;;;;;;;89.10;60.40;;;;;;;-5.65;100.00;100748.44;105279;1270;73376;-75
2022/03/01 06:05:18;;;;;;;95.00;60.40;;;;;;;-5.59;100.00;100755.36;105268;1271;61171;-75
2022/03/01 06:07:45;;;;;;;80.20;54.30;;;;;;;-5.52;100.00;100754.67;105221;1270;61250;-75
2022/03/01 06:10:12;;;;;;;86.20;58.80;;;;;;;-5.43;100.00;100756.98;105243;1270;74289;-74
2022/03/01 06:12:39;;;;;;;88.70;60.50;;;;;;;-5.35;100.00;100756.17;105263;1270;69776;-75
2022/03/01 06:15:06;;;;;;;80.90;59.00;;;;;;;-5.26;100.00;100754.48;105087;1271;73113;-74
2022/03/01 06:17:33;;;;;;;80.50;56.80;;;;;;;-5.19;100.00;100758.98;105244;1270;61251;-74
2022/03/01 06:20:01;;;;;;;91.90;60.00;;;;;;;-5.13;100.00;100762.45;105269;1270;62214;-74
2022/03/01 06:22:28;;;;;;;92.20;60.10;;;;;;;-5.04;100.00;100762.14;104977;1273;75440;-74
2022/03/01 06:24:55;;;;;;;80.80;56.80;;;;;;;-4.92;100.00;100763.64;105238;1270;69346;-75
2022/03/01 06:27:23;;;;;;;82.70;55.80;;;;;;;-4.82;100.00;100760.41;105223;1270;73115;-75
2022/03/01 06:29:49;;;;;;;84.00;59.10;;;;;;;-4.70;100.00;100762.59;105060;1270;61395;-75
2022/03/01 06:32:16;;;;;;;103.40;71.30;;;;;;;-4.61;100.00;100763.84;105260;1271;61257;-75
2022/03/01 06:34:43;;;;;;;93.80;67.70;;;;;;;-4.49;100.00;100765.51;105289;1270;75978;-74
2022/03/01 06:37:13;;;;;;;89.40;61.50;;;;;;;-4.37;100.00;100762.29;105265;1270;61291;-75
2022/03/01 06:39:41;;;;;;;77.00;55.30;;;;;;;-4.26;100.00;100765.66;105212;1270;72827;-75
2022/03/01 06:42:08;;;;;;;74.30;50.50;;;;;;;-4.15;100.00;100763.81;104948;1270;61366;-74
2022/03/01 06:44:35;;;;;;;66.60;46.80;;;;;;;-4.03;100.00;100760.25;105287;1270;61298;-75
2022/03/01 06:47:03;;;;;;;65.30;44.60;;;;;;;-3.91;100.00;100755.45;105361;1270;75350;-75
2022/03/01 06:49:30;;;;;;;66.60;45.60;;;;;;;-3.80;100.00;100751.85;104874;1271;68585;-74
2022/03/01 06:51:57;;;;;;;70.70;47.00;;;;;;;-3.69;100.00;100755.36;105290;1270;73375;-74
2022/03/01 06:54:23;;;;;;;70.10;46.80;;;;;;;-3.59;100.00;100759.02;104985;1271;61371;-74
2022/03/01 06:56:50;;;;;;;69.10;47.80;;;;;;;-3.47;100.00;100763.58;105250;1270;61486;-74
2022/03/01 06:59:16;;;;;;;69.80;44.40;;;;;;;-3.37;100.00;100758.90;105195;1271;61285;-75
2022/03/01 07:01:43;;;;;;;61.00;44.30;;;;;;;-3.25;100.00;100760.15;105288;1271;61300;-76
2022/03/01 07:04:09;;;;;;;51.10;33.80;;;;;;;-3.14;100.00;100765.55;105215;1271;61379;-74
2022/03/01 07:06:36;;;;;;;39.30;27.90;;;;;;;-3.01;100.00;100766.46;105265;1270;61257;-74
2022/03/01 07:09:03;;;;;;;39.30;26.20;;;;;;;-2.87;100.00;100762.34;105262;1269;61254;-75
2022/03/01 07:11:29;;;;;;;39.40;25.70;;;;;;;-2.74;100.00;100765.50;105222;1271;75184;-75
2022/03/01 07:13:56;;;;;;;42.00;25.40;;;;;;;-2.64;100.00;100765.84;105273;1270;61362;-75
2022/03/01 07:16:22;;;;;;;34.10;23.40;;;;;;;-2.53;100.00;100769.14;105248;1270;61250;-76
2022/03/01 07:18:49;;;;;;;36.90;24.50;;;;;;;-2.43;100.00;100772.58;105252;1269;61329;-76
2022/03/01 07:21:15;;;;;;;40.70;28.20;;;;;;;-2.36;100.00;100772.52;105259;1271;61286;-74
2022/03/01 07:23:42;;;;;;;38.50;25.90;;;;;;;-2.28;100.00;100771.76;105263;1271;61271;-75
2022/03/01 07:26:08;;;;;;;46.00;30.60;;;;;;;-2.21;100.00;100770.10;105259;1270;61375;-75
2022/03/01 07:28:35;;;;;;;41.20;28.20;;;;;;;-2.13;100.00;100775.42;105243;1271;62754;-75
2022/03/01 07:31:02;;;;;;;46.60;30.20;;;;;;;-2.03;100.00;100779.39;105265;1270;61138;-76
2022/03/01 07:33:29;;;;;;;45.20;30.20;;;;;;;-1.95;100.00;100783.86;105226;1271;62114;-76
2022/03/01 07:35:55;;;;;;;42.10;29.50;;;;;;;-1.87;100.00;100781.69;105278;1271;76070;-75
2022/03/01 07:38:22;;;;;;;41.60;29.00;;;;;;;-1.77;100.00;100781.63;105266;1271;61371;-73
2022/03/01 07:40:48;;;;;;;43.90;29.60;;;;;;;-1.67;100.00;100782.10;105231;1270;61292;-76
2022/03/01 07:43:15;;;;;;;39.70;24.40;;;;;;;-1.57;100.00;100776.29;104300;1270;1003136;-74
2022/03/01 07:45:41;;;;;;;36.00;23.50;;;;;;;-1.50;100.00;100780.89;105299;1271;61205;-76
2022/03/01 07:48:10;;;;;;;39.20;25.20;;;;;;;-1.42;100.00;100783.07;105308;1271;75410;-77
2022/03/01 07:50:37;;;;;;;32.00;22.40;;;;;;;-1.31;100.00;100779.34;105246;1270;69131;-74
2022/03/01 07:53:03;;;;;;;29.20;20.00;;;;;;;-1.22;100.00;100776.13;105245;1271;74428;-74
2022/03/01 07:55:30;;;;;;;29.80;19.90;;;;;;;-1.15;100.00;100774.98;105272;1271;61295;-73
2022/03/01 07:57:56;;;;;;;30.60;21.20;;;;;;;-1.07;100.00;100774.70;104513;1271;1003783;-76
2022/03/01 08:00:27;;;;;;;33.80;21.20;;;;;;;-0.96;100.00;100777.94;105264;1270;75175;-74
2022/03/01 08:02:54;;;;;;;33.20;21.50;;;;;;;-0.87;100.00;100774.86;104972;1274;70728;-75
2022/03/01 08:05:20;;;;;;;37.70;22.60;;;;;;;-0.80;99.08;100775.45;105230;1270;74744;-75
2022/03/01 08:07:47;;;;;;;36.00;22.70;;;;;;;-0.79;98.25;100771.78;105308;1271;61308;-74
2022/03/01 08:10:14;;;;;;;32.50;22.80;;;;;;;-0.77;98.03;100769.52;105265;1271;61395;-75
2022/03/01 08:12:41;;;;;;;33.80;20.90;;;;;;;-0.72;98.38;100766.27;105310;1270;75248;-75
2022/03/01 08:15:09;;;;;;;32.00;21.10;;;;;;;-0.63;98.09;100760.20;105052;1271;70470;-73
2022/03/01 08:17:35;;;;;;;29.40;20.50;;;;;;;-0.56;97.26;100754.33;105279;1271;74466;-76
2022/03/01 08:20:02;;;;;;;29.00;19.40;;;;;;;-0.49;97.20;100758.04;105269;1270;61266;-75
2022/03/01 08:22:29;;;;;;;27.70;19.00;;;;;;;-0.40;97.15;100755.48;103085;1272;1003806;-73
2022/03/01 08:24:55;;;;;;;29.40;19.60;;;;;;;-0.30;96.45;100753.95;105257;1271;75321;-76
2022/03/01 08:27:22;;;;;;;30.40;19.70;;;;;;;-0.22;96.01;100752.26;105322;1271;61349;-75
2022/03/01 08:29:48;;;;;;;34.20;21.10;;;;;;;-0.14;95.87;100745.30;105237;1270;61354;-76
2022/03/01 08:32:14;;;;;;;31.50;21.70;;;;;;;-0.05;95.93;100736.98;104993;1274;70659;-75
2022/03/01 08:34:41;;;;;;;32.20;21.00;;;;;;;0.07;95.49;100737.88;105279;1271;61280;-75
2022/03/01 08:37:07;;;;;;;29.80;20.30;;;;;;;0.16;95.32;100730.58;104985;1274;61376;-76
2022/03/01 08:39:34;;;;;;;30.40;19.40;;;;;;;0.23;94.46;100727.64;105245;1271;61382;-75
2022/03/01 08:42:00;;;;;;;32.00;21.90;;;;;;;0.30;94.34;100727.13;105272;1271;61348;-76
2022/03/01 08:44:27;;;;;;;30.40;20.70;;;;;;;0.39;94.13;100726.10;105019;1272;61375;-75
2022/03/01 08:46:54;;;;;;;29.00;19.10;;;;;;;0.46;92.96;100727.68;105493;1271;61186;-74
2022/03/01 08:49:20;;;;;;;31.20;19.70;;;;;;;0.46;91.58;100724.20;105322;1270;61339;-74
2022/03/01 08:51:47;;;;;;;34.20;22.90;;;;;;;0.48;92.11;100718.08;105366;1270;61287;-74
2022/03/01 08:54:13;;;;;;;30.80;20.40;;;;;;;0.56;91.80;100711.61;105314;1270;61133;-74
2022/03/01 08:56:40;;;;;;;29.60;19.60;;;;;;;0.59;90.99;100708.46;105361;1270;61359;-75
2022/03/01 08:59:06;;;;;;;31.20;20.80;;;;;;;0.61;90.80;100706.02;105342;1271;61310;-75
2022/03/01 09:01:33;;;;;;;32.00;21.20;;;;;;;0.65;90.24;100700.78;105288;1271;61398;-74
2022/03/01 09:03:59;;;;;;;32.30;21.90;;;;;;;0.72;90.95;100701.48;105273;1271;61243;-75
2022/03/01 09:06:26;;;;;;;31.20;20.50;;;;;;;0.81;90.66;100702.72;105295;1270;61275;-74
2022/03/01 09:08:53;;;;;;;31.40;19.70;;;;;;;0.93;90.36;100696.08;105108;1272;61441;-74
2022/03/01 09:11:20;;;;;;;27.10;18.40;;;;;;;1.02;90.23;100694.49;105356;1271;61283;-73
2022/03/01 09:13:46;;;;;;;27.40;17.60;;;;;;;1.11;89.21;100693.60;105220;1271;75619;-74
2022/03/01 09:16:13;;;;;;;23.70;16.40;;;;;;;1.14;87.99;100692.73;105273;1271;61375;-74
2022/03/01 09:18:40;;;;;;;27.60;20.00;;;;;;;1.13;88.30;100686.60;105298;1270;73224;-74
2022/03/01 09:21:07;;;;;;;25.40;18.20;;;;;;;1.22;88.79;100682.91;105136;1272;61588;-74
2022/03/01 09:23:34;;;;;;;24.60;17.70;;;;;;;1.34;88.19;100685.52;105304;1271;61214;-75
2022/03/01 09:26:01;;;;;;;24.20;17.90;;;;;;;1.45;88.52;100679.35;105360;1271;75021;-76
2022/03/01 09:28:27;;;;;;;21.70;16.60;;;;;;;1.56;87.92;100678.98;105054;1271;69013;-77
2022/03/01 09:30:54;;;;;;;20.70;15.40;;;;;;;1.63;87.36;100674.92;105291;1271;73253;-74
2022/03/01 09:33:21;;;;;;;19.80;13.70;;;;;;;1.70;86.86;100670.17;105027;1271;61307;-77
2022/03/01 09:35:47;;;;;;;18.90;13.30;;;;;;;1.79;86.91;100669.27;105286;1270;61297;-75
2022/03/01 09:38:14;;;;;;;16.50;11.40;;;;;;;1.87;86.03;100666.77;105175;1272;61299;-74
2022/03/01 09:40:46;;;;;;;17.00;10.10;;;;;;;1.94;85.56;100664.80;105317;1271;68642;-83
2022/03/01 09:43:13;;;;;;;15.90;9.50;;;;;;;1.98;84.13;100666.54;106084;1271;74550;-85
2022/03/01 09:45:39;;;;;;;14.50;10.90;;;;;;;2.02;82.81;100666.17;105825;1271;61779;-75
2022/03/01 09:48:06;;;;;;;16.10;9.60;;;;;;;2.01;81.78;100660.04;105445;1271;61157;-71
2022/03/01 09:50:33;;;;;;;14.30;9.90;;;;;;;1.96;80.13;100658.48;105385;1271;75206;-75
2022/03/01 09:53:01;;;;;;;15.00;11.00;;;;;;;1.96;80.59;100654.98;105405;1271;69111;-75
2022/03/01 09:55:29;;;;;;;18.00;11.40;;;;;;;2.02;81.41;100651.27;105381;1271;74372;-73
2022/03/01 09:57:56;;;;;;;20.90;13.40;;;;;;;2.13;82.19;100655.40;105411;1271;61300;-74
2022/03/01 10:00:24;;;;;;;21.60;13.30;;;;;;;2.25;81.66;100654.12;105321;1271;61272;-73
2022/03/01 10:02:56;;;;;;;20.90;14.30;;;;;;;2.33;81.08;100647.74;105765;1270;76307;-75
2022/03/01 10:05:38;;;;;;;19.70;13.50;;;;;;;2.39;81.19;100641.55;106529;1270;69364;-75
2022/03/01 10:08:16;;;;;;;19.50;13.50;;;;;;;2.49;81.50;100634.13;106234;1271;73115;-74
2022/03/01 10:10:48;;;;;;;20.10;13.20;;;;;;;2.62;81.11;100633.50;105251;1271;61263;-73
2022/03/01 10:13:22;;;;;;;19.20;12.80;;;;;;;2.72;81.27;100629.73;105107;1271;61309;-73
2022/03/01 10:16:05;;;;;;;19.30;12.10;;;;;;;2.79;79.95;100632.48;105335;1269;76178;-74
2022/03/01 10:18:34;;;;;;;21.50;12.70;;;;;;;2.80;79.85;100631.05;105285;1271;69231;-73
2022/03/01 10:21:11;;;;;;;18.50;12.70;;;;;;;2.85;79.54;100628.91;105379;1270;74157;-74
2022/03/01 10:23:41;;;;;;;16.70;11.90;;;;;;;2.90;79.18;100618.86;105247;1271;61228;-73
2022/03/01 10:26:13;;;;;;;20.20;12.50;;;;;;;2.94;78.95;100618.82;105267;1271;61253;-73
2022/03/01 10:28:41;;;;;;;16.40;11.10;;;;;;;3.00;77.96;100617.54;105356;1270;75359;-75
2022/03/01 10:31:31;;;;;;;18.00;11.60;;;;;;;3.02;77.85;100611.55;105293;1270;70164;-74
2022/03/01 10:34:03;;;;;;;16.90;12.10;;;;;;;3.08;78.05;100605.86;105305;1270;73231;-73
2022/03/01 10:36:33;;;;;;;15.70;10.70;;;;;;;3.15;76.69;100606.50;105500;1270;61412;-73
2022/03/01 10:39:04;;;;;;;14.80;11.10;;;;;;;3.16;76.39;100597.36;105307;1270;62067;-73
2022/03/01 10:41:34;;;;;;;16.10;11.60;;;;;;;3.24;77.41;100594.63;105399;1273;73464;-74
2022/03/01 10:44:03;;;;;;;18.30;12.60;;;;;;;3.40;77.08;100596.03;105303;1270;68090;-72
2022/03/01 10:46:37;;;;;;;14.10;10.80;;;;;;;3.50;76.71;100589.05;105312;1271;72750;-73
2022/03/01 10:49:12;;;;;;;15.10;10.50;;;;;;;3.57;76.33;100584.21;105288;1270;61234;-74
2022/03/01 10:51:57;;;;;;;13.30;9.70;;;;;;;3.59;75.62;100581.02;105554;1270;61308;-74
2022/03/01 10:54:36;;;;;;;16.70;10.40;;;;;;;3.60;75.21;100576.45;105184;1273;75418;-73
2022/03/01 10:57:06;;;;;;;13.40;9.40;;;;;;;3.66;74.41;100570.73;105290;1270;69121;-75
2022/03/01 10:59:34;;;;;;;12.50;8.40;;;;;;;3.74;74.98;100573.09;105370;1270;72880;-75
2022/03/01 11:02:02;;;;;;;14.30;9.60;;;;;;;3.81;74.30;100571.07;105365;1270;61359;-75